Time;durP1;ratioP1;P1;durP2;ratioP2;P2;SDS_P1;SDS_P2;PMS_P1;PMS_P2;Temp;Humidity;BMP_temperature;BMP_pressure;BME280_temperature;BME280_humidity;BME280_pressure;Samples;Min_cycle;Max_cycle;Signal;HPM_P1;HPM_P2
2021/12/29 00:01:57;;;;;;;79.97;15.88;;;;;;;;;;5055058;28;20045;-68
2021/12/29 00:04:24;;;;;;;63.83;14.48;;;;;;;;;;5043406;28;20037;-68
2021/12/29 00:06:50;;;;;;;72.38;15.73;;;;;;;;;;5050130;28;20502;-68
2021/12/29 00:09:16;;;;;;;76.22;14.40;;;;;;;;;;5054112;28;20080;-68
2021/12/29 00:11:42;;;;;;;71.57;13.38;;;;;;;;;;5054640;28;20376;-68
2021/12/29 00:14:09;;;;;;;72.88;12.80;;;;;;;;;;5053362;28;20052;-68
2021/12/29 00:16:35;;;;;;;67.38;12.18;;;;;;;;;;5054037;28;20049;-68
2021/12/29 00:19:02;;;;;;;78.38;12.93;;;;;;;;;;5054316;28;20049;-68
2021/12/29 00:21:29;;;;;;;57.08;11.00;;;;;;;;;;5052976;28;20052;-68
2021/12/29 00:23:58;;;;;;;51.42;9.80;;;;;;;;;;5054296;28;20053;-68
2021/12/29 00:26:25;;;;;;;65.90;10.88;;;;;;;;;;5052856;28;20499;-68
2021/12/29 00:28:51;;;;;;;45.67;9.63;;;;;;;;;;5054317;28;20041;-67
2021/12/29 00:31:17;;;;;;;39.15;8.93;;;;;;;;;;5053984;28;20412;-68
2021/12/29 00:33:43;;;;;;;46.30;9.07;;;;;;;;;;5054353;28;20597;-68
2021/12/29 00:36:10;;;;;;;38.20;8.15;;;;;;;;;;5052748;28;20045;-68
2021/12/29 00:38:36;;;;;;;40.58;8.80;;;;;;;;;;5054098;28;20045;-69
2021/12/29 00:41:02;;;;;;;34.35;8.98;;;;;;;;;;5053732;28;20045;-68
2021/12/29 00:43:28;;;;;;;38.50;9.18;;;;;;;;;;5034231;28;20041;-68
2021/12/29 00:45:54;;;;;;;36.28;8.48;;;;;;;;;;5036722;28;20120;-68
2021/12/29 00:48:21;;;;;;;31.52;8.43;;;;;;;;;;5052698;28;20053;-68
2021/12/29 00:50:47;;;;;;;42.05;9.05;;;;;;;;;;5052516;28;20081;-68
2021/12/29 00:53:16;;;;;;;34.13;9.02;;;;;;;;;;5052526;28;20036;-68
2021/12/29 00:55:42;;;;;;;29.90;7.57;;;;;;;;;;5053868;28;20510;-68
2021/12/29 00:58:08;;;;;;;26.25;7.18;;;;;;;;;;5035375;28;20545;-68
2021/12/29 01:00:37;;;;;;;28.42;7.10;;;;;;;;;;5053369;28;20457;-68
2021/12/29 01:03:04;;;;;;;27.13;7.32;;;;;;;;;;5052571;28;20049;-68
2021/12/29 01:05:30;;;;;;;34.53;7.30;;;;;;;;;;5053043;28;20083;-68
2021/12/29 01:07:56;;;;;;;30.00;6.90;;;;;;;;;;5036075;28;20094;-68
2021/12/29 01:10:22;;;;;;;30.92;7.38;;;;;;;;;;5052291;28;20040;-68
2021/12/29 01:12:58;;;;;;;29.13;6.97;;;;;;;;;;5052156;28;20131;-68
2021/12/29 01:15:30;;;;;;;28.20;7.13;;;;;;;;;;5052145;28;20056;-68
2021/12/29 01:17:57;;;;;;;33.45;7.30;;;;;;;;;;5052956;28;20053;-68
2021/12/29 01:20:23;;;;;;;29.08;7.32;;;;;;;;;;5052152;28;20116;-68
2021/12/29 01:22:50;;;;;;;32.30;7.85;;;;;;;;;;5053068;28;20140;-68
2021/12/29 01:25:16;;;;;;;27.02;7.20;;;;;;;;;;5035585;28;20390;-69
2021/12/29 01:27:42;;;;;;;34.55;7.53;;;;;;;;;;5052266;28;20048;-68
2021/12/29 01:30:10;;;;;;;38.78;8.35;;;;;;;;;;5051711;28;20057;-68
2021/12/29 01:32:37;;;;;;;37.13;8.55;;;;;;;;;;5052877;28;20044;-68
2021/12/29 01:35:04;;;;;;;41.65;7.63;;;;;;;;;;5051923;28;20132;-68
2021/12/29 01:37:30;;;;;;;36.00;8.32;;;;;;;;;;5053782;28;20503;-68
2021/12/29 01:39:56;;;;;;;41.40;7.95;;;;;;;;;;5051343;28;20083;-68
2021/12/29 01:42:22;;;;;;;43.80;8.88;;;;;;;;;;5051921;28;20399;-68
2021/12/29 01:44:48;;;;;;;44.10;7.82;;;;;;;;;;5051652;28;20123;-68
2021/12/29 01:47:23;;;;;;;46.50;9.00;;;;;;;;;;5052848;28;20098;-68
2021/12/29 01:49:49;;;;;;;58.85;10.10;;;;;;;;;;5048351;28;20045;-68
2021/12/29 01:52:21;;;;;;;56.33;10.20;;;;;;;;;;5052175;28;20041;-68
2021/12/29 01:54:47;;;;;;;51.45;9.95;;;;;;;;;;5052082;28;20442;-68
2021/12/29 01:57:13;;;;;;;70.32;11.23;;;;;;;;;;5051532;28;20428;-68
2021/12/29 01:59:40;;;;;;;59.20;10.07;;;;;;;;;;5053348;28;20053;-68
2021/12/29 02:02:07;;;;;;;75.00;11.10;;;;;;;;;;5034595;28;20048;-68
2021/12/29 02:04:33;;;;;;;70.40;10.13;;;;;;;;;;5051341;28;20049;-68
2021/12/29 02:06:59;;;;;;;86.13;11.55;;;;;;;;;;5051108;28;20049;-68
2021/12/29 02:09:25;;;;;;;91.38;11.65;;;;;;;;;;5051131;28;20041;-68
2021/12/29 02:11:52;;;;;;;96.68;12.73;;;;;;;;;;5053239;28;20048;-68
2021/12/29 02:14:18;;;;;;;105.25;12.65;;;;;;;;;;5052501;28;20100;-69
2021/12/29 02:16:44;;;;;;;94.25;11.75;;;;;;;;;;5052196;28;20372;-68
2021/12/29 02:19:12;;;;;;;148.98;15.02;;;;;;;;;;5051306;28;20783;-68
2021/12/29 02:21:38;;;;;;;154.73;14.88;;;;;;;;;;5052184;28;20413;-69
2021/12/29 02:26:36;;;;;;;178.30;15.65;;;;;;;;;;5052438;28;20072;-68
2021/12/29 02:29:03;;;;;;;169.55;16.15;;;;;;;;;;5033979;28;20105;-68
2021/12/29 02:31:30;;;;;;;164.95;16.45;;;;;;;;;;5050514;28;20045;-68
2021/12/29 02:33:56;;;;;;;214.05;18.27;;;;;;;;;;5050557;28;20045;-68
2021/12/29 02:36:22;;;;;;;113.78;13.82;;;;;;;;;;5051946;28;20045;-69
2021/12/29 02:38:54;;;;;;;161.38;15.88;;;;;;;;;;5051575;28;20044;-68
2021/12/29 02:41:22;;;;;;;176.30;16.60;;;;;;;;;;5050961;28;20471;-68
2021/12/29 02:43:49;;;;;;;162.27;15.32;;;;;;;;;;5050758;28;20084;-68
2021/12/29 02:46:16;;;;;;;144.75;14.60;;;;;;;;;;5050777;28;20056;-69
2021/12/29 02:48:53;;;;;;;158.82;15.23;;;;;;;;;;5052711;28;20049;-68
2021/12/29 02:51:19;;;;;;;134.93;13.90;;;;;;;;;;5051620;28;20064;-68
2021/12/29 02:53:45;;;;;;;124.70;13.80;;;;;;;;;;5052230;28;20037;-68
2021/12/29 02:56:11;;;;;;;122.78;13.43;;;;;;;;;;5051013;28;20068;-68
2021/12/29 02:58:37;;;;;;;127.78;13.13;;;;;;;;;;5052801;28;20403;-68
2021/12/29 03:01:05;;;;;;;119.25;13.38;;;;;;;;;;5052393;28;20041;-68
2021/12/29 03:03:33;;;;;;;109.20;12.38;;;;;;;;;;5029688;28;20045;-68
2021/12/29 03:05:59;;;;;;;95.88;12.73;;;;;;;;;;5053881;28;20056;-68
2021/12/29 03:08:26;;;;;;;83.10;11.18;;;;;;;;;;5055285;28;20041;-68
2021/12/29 03:10:56;;;;;;;81.07;11.32;;;;;;;;;;5055633;28;20414;-69
2021/12/29 03:13:23;;;;;;;93.03;12.38;;;;;;;;;;5054148;28;20128;-68
2021/12/29 03:15:49;;;;;;;87.00;12.15;;;;;;;;;;5054912;28;20487;-69
2021/12/29 03:18:15;;;;;;;75.03;11.45;;;;;;;;;;5054109;28;20056;-68
2021/12/29 03:20:42;;;;;;;77.88;11.85;;;;;;;;;;5054135;28;20075;-68
2021/12/29 03:23:08;;;;;;;87.82;11.75;;;;;;;;;;5037882;28;20143;-68
2021/12/29 03:25:34;;;;;;;69.85;11.57;;;;;;;;;;5038638;28;20052;-68
2021/12/29 03:28:00;;;;;;;75.32;12.27;;;;;;;;;;5054246;28;20403;-69
2021/12/29 03:30:31;;;;;;;74.22;11.82;;;;;;;;;;5055260;28;20457;-68
2021/12/29 03:33:04;;;;;;;78.63;12.45;;;;;;;;;;5055349;28;20092;-68
2021/12/29 03:35:31;;;;;;;67.47;11.38;;;;;;;;;;5055019;28;20043;-68
2021/12/29 03:37:58;;;;;;;70.63;12.80;;;;;;;;;;5055106;28;20045;-68
2021/12/29 03:40:24;;;;;;;71.75;12.95;;;;;;;;;;5053910;28;20224;-68
2021/12/29 03:42:50;;;;;;;69.88;13.02;;;;;;;;;;5055324;28;20091;-68
2021/12/29 03:45:16;;;;;;;75.88;14.25;;;;;;;;;;5054769;28;20072;-68
2021/12/29 03:47:42;;;;;;;74.13;13.15;;;;;;;;;;5036956;28;20080;-68
2021/12/29 03:50:08;;;;;;;77.53;14.27;;;;;;;;;;5037409;28;20049;-68
2021/12/29 03:52:34;;;;;;;71.43;14.13;;;;;;;;;;5055779;28;20076;-68
2021/12/29 03:55:00;;;;;;;58.40;13.15;;;;;;;;;;5053615;28;20052;-68
2021/12/29 03:57:26;;;;;;;67.97;14.10;;;;;;;;;;5036959;28;20053;-68
2021/12/29 03:59:52;;;;;;;64.03;13.38;;;;;;;;;;5054087;28;20114;-68
2021/12/29 04:02:18;;;;;;;69.05;14.35;;;;;;;;;;5053136;28;20077;-68
2021/12/29 04:04:44;;;;;;;64.15;13.57;;;;;;;;;;5053728;28;20072;-68
2021/12/29 04:07:10;;;;;;;59.30;13.85;;;;;;;;;;5053283;28;20459;-68
2021/12/29 04:09:36;;;;;;;67.00;14.55;;;;;;;;;;5055565;28;20133;-68
2021/12/29 04:12:02;;;;;;;62.83;14.32;;;;;;;;;;5054444;28;20053;-69
2021/12/29 04:14:28;;;;;;;67.28;15.68;;;;;;;;;;5053442;28;20102;-68
2021/12/29 04:16:57;;;;;;;59.28;14.93;;;;;;;;;;5053826;28;20045;-68
2021/12/29 04:19:32;;;;;;;62.78;15.57;;;;;;;;;;5052702;28;20052;-69
2021/12/29 04:21:58;;;;;;;65.57;16.17;;;;;;;;;;5052447;28;20388;-68
2021/12/29 04:24:25;;;;;;;77.32;17.45;;;;;;;;;;5055092;28;20037;-68
2021/12/29 04:26:51;;;;;;;71.18;16.60;;;;;;;;;;5054371;28;20099;-68
2021/12/29 04:29:17;;;;;;;71.85;17.20;;;;;;;;;;5036837;28;20063;-68
2021/12/29 04:31:43;;;;;;;71.68;16.83;;;;;;;;;;5052753;28;20384;-68
2021/12/29 04:34:10;;;;;;;73.88;16.15;;;;;;;;;;5031843;28;20102;-68
2021/12/29 04:36:36;;;;;;;67.15;17.38;;;;;;;;;;5054178;28;20044;-68
2021/12/29 04:39:03;;;;;;;67.78;17.23;;;;;;;;;;5054827;28;20462;-68
2021/12/29 04:41:30;;;;;;;80.90;17.20;;;;;;;;;;5054188;28;20052;-68
2021/12/29 04:43:56;;;;;;;69.30;17.02;;;;;;;;;;5054224;28;20131;-69
2021/12/29 04:46:28;;;;;;;72.00;17.35;;;;;;;;;;5054849;28;20063;-68
2021/12/29 04:49:00;;;;;;;61.97;16.63;;;;;;;;;;5054069;28;20072;-68
2021/12/29 04:51:34;;;;;;;67.00;16.77;;;;;;;;;;5053956;28;20091;-68
2021/12/29 04:54:00;;;;;;;63.63;16.70;;;;;;;;;;5053795;28;20063;-68
2021/12/29 04:56:26;;;;;;;63.13;17.35;;;;;;;;;;5053920;28;20127;-68
2021/12/29 04:58:52;;;;;;;67.32;17.05;;;;;;;;;;5052288;28;20498;-68
2021/12/29 05:01:18;;;;;;;57.95;16.08;;;;;;;;;;5053418;28;20044;-68
2021/12/29 05:03:45;;;;;;;65.00;16.83;;;;;;;;;;5035950;28;20111;-68
2021/12/29 05:08:37;;;;;;;59.00;16.45;;;;;;;;;;5051980;28;20087;-69
2021/12/29 05:11:08;;;;;;;69.13;17.42;;;;;;;;;;5053390;28;20041;-68
2021/12/29 05:13:36;;;;;;;59.47;17.23;;;;;;;;;;5053514;28;20116;-68
2021/12/29 05:16:02;;;;;;;57.08;15.60;;;;;;;;;;5053431;28;20037;-68
2021/12/29 05:18:30;;;;;;;54.17;14.57;;;;;;;;;;5052893;28;20041;-68
2021/12/29 05:20:56;;;;;;;46.95;14.98;;;;;;;;;;5051983;28;20040;-68
2021/12/29 05:23:22;;;;;;;52.85;15.52;;;;;;;;;;5053473;28;20052;-69
2021/12/29 05:25:49;;;;;;;47.70;14.65;;;;;;;;;;5053123;28;20072;-68
2021/12/29 05:28:17;;;;;;;50.80;15.60;;;;;;;;;;5052159;28;20056;-68
2021/12/29 05:30:44;;;;;;;53.58;15.27;;;;;;;;;;5054069;28;20065;-68
2021/12/29 05:33:10;;;;;;;52.65;15.13;;;;;;;;;;5043561;28;20046;-68
2021/12/29 05:35:36;;;;;;;61.58;16.15;;;;;;;;;;5052406;28;20403;-68
2021/12/29 05:38:02;;;;;;;54.10;15.55;;;;;;;;;;5049800;28;20423;-68
2021/12/29 05:40:29;;;;;;;52.05;15.73;;;;;;;;;;5053138;28;20110;-69
2021/12/29 05:42:55;;;;;;;57.10;15.65;;;;;;;;;;5032731;28;20103;-68
2021/12/29 05:45:21;;;;;;;60.60;17.60;;;;;;;;;;5043883;28;20056;-68
2021/12/29 05:47:47;;;;;;;61.25;16.30;;;;;;;;;;5051642;28;20037;-68
2021/12/29 05:50:16;;;;;;;60.85;15.45;;;;;;;;;;5052843;28;20056;-68
2021/12/29 05:52:42;;;;;;;64.20;17.20;;;;;;;;;;5052712;28;20057;-68
2021/12/29 05:55:08;;;;;;;57.08;17.00;;;;;;;;;;5052692;28;20388;-68
2021/12/29 05:57:34;;;;;;;65.55;18.25;;;;;;;;;;5051745;28;20095;-68
2021/12/29 06:00:01;;;;;;;60.03;16.90;;;;;;;;;;5051396;28;20496;-68
2021/12/29 06:02:27;;;;;;;57.30;17.52;;;;;;;;;;5052085;28;20045;-68
2021/12/29 06:04:53;;;;;;;57.45;16.35;;;;;;;;;;5053070;28;20048;-68
2021/12/29 06:07:19;;;;;;;59.30;17.13;;;;;;;;;;5032153;28;20049;-68
2021/12/29 06:09:45;;;;;;;61.58;18.60;;;;;;;;;;5050981;28;20491;-68
2021/12/29 06:12:10;;;;;;;60.70;17.80;;;;;;;;;;5050980;28;20120;-68
2021/12/29 06:14:36;;;;;;;61.95;17.52;;;;;;;;;;5051343;28;20049;-68
2021/12/29 06:17:03;;;;;;;56.83;17.85;;;;;;;;;;5053277;28;20632;-68
2021/12/29 06:19:30;;;;;;;58.53;18.38;;;;;;;;;;5050845;28;20055;-68
2021/12/29 06:21:56;;;;;;;60.70;18.23;;;;;;;;;;5052243;28;20049;-68
2021/12/29 06:24:22;;;;;;;65.85;19.25;;;;;;;;;;5050674;28;20519;-68
2021/12/29 06:26:48;;;;;;;63.17;19.15;;;;;;;;;;5051084;28;20466;-68
2021/12/29 06:29:14;;;;;;;51.33;18.15;;;;;;;;;;5052065;28;20075;-68
2021/12/29 06:31:44;;;;;;;61.60;18.58;;;;;;;;;;5034623;28;20057;-68
2021/12/29 06:34:10;;;;;;;60.97;18.65;;;;;;;;;;5051032;28;20080;-68
2021/12/29 06:36:36;;;;;;;62.50;18.85;;;;;;;;;;5052109;28;20080;-68
2021/12/29 06:39:02;;;;;;;65.85;18.63;;;;;;;;;;5050844;28;20483;-68
2021/12/29 06:41:28;;;;;;;58.38;17.98;;;;;;;;;;5037350;28;20041;-68
2021/12/29 06:43:54;;;;;;;59.83;19.20;;;;;;;;;;5055370;28;20049;-68
2021/12/29 06:46:20;;;;;;;63.60;19.90;;;;;;;;;;5038746;28;20048;-68
2021/12/29 06:48:46;;;;;;;67.68;18.65;;;;;;;;;;5055295;28;20082;-68
2021/12/29 06:51:12;;;;;;;64.53;18.67;;;;;;;;;;5055043;28;20056;-68
2021/12/29 06:53:38;;;;;;;64.50;18.85;;;;;;;;;;5038983;28;20052;-68
2021/12/29 06:56:06;;;;;;;64.15;17.98;;;;;;;;;;5054564;28;20053;-68
2021/12/29 06:58:32;;;;;;;63.42;18.98;;;;;;;;;;5055172;28;20127;-68
2021/12/29 07:00:58;;;;;;;70.57;19.85;;;;;;;;;;5054664;28;20045;-68
2021/12/29 07:03:25;;;;;;;63.42;17.63;;;;;;;;;;5056903;28;20047;-68
2021/12/29 07:05:52;;;;;;;64.68;17.83;;;;;;;;;;5038151;28;20052;-68
2021/12/29 07:08:18;;;;;;;61.05;16.55;;;;;;;;;;5054566;28;20049;-68
2021/12/29 07:10:45;;;;;;;72.43;17.58;;;;;;;;;;5055630;28;20132;-68
2021/12/29 07:13:11;;;;;;;61.97;16.98;;;;;;;;;;5029378;28;20041;-68
2021/12/29 07:15:37;;;;;;;68.55;16.35;;;;;;;;;;5055438;28;20059;-68
2021/12/29 07:18:04;;;;;;;73.85;17.98;;;;;;;;;;5056617;28;20045;-68
2021/12/29 07:20:30;;;;;;;77.18;17.85;;;;;;;;;;5055794;28;20072;-68
2021/12/29 07:22:56;;;;;;;67.80;16.63;;;;;;;;;;5029337;28;20053;-68
2021/12/29 07:25:24;;;;;;;79.85;16.98;;;;;;;;;;5054257;28;20045;-68
2021/12/29 07:27:50;;;;;;;61.45;15.82;;;;;;;;;;5055235;28;20407;-68
2021/12/29 07:30:16;;;;;;;57.38;15.35;;;;;;;;;;5053830;28;20053;-68
2021/12/29 07:32:42;;;;;;;72.63;15.75;;;;;;;;;;5038348;28;20053;-68
2021/12/29 07:35:08;;;;;;;62.53;14.80;;;;;;;;;;5054695;28;20055;-68
2021/12/29 07:37:34;;;;;;;57.78;15.20;;;;;;;;;;5055407;28;20044;-68
2021/12/29 07:40:05;;;;;;;61.08;15.27;;;;;;;;;;5053871;28;20049;-68
2021/12/29 07:42:31;;;;;;;68.53;15.23;;;;;;;;;;5037996;28;20163;-69
2021/12/29 07:44:57;;;;;;;81.65;17.63;;;;;;;;;;5055331;28;20059;-69
2021/12/29 07:47:23;;;;;;;66.75;15.82;;;;;;;;;;5054210;28;20372;-68
2021/12/29 07:49:49;;;;;;;66.10;15.32;;;;;;;;;;5036815;28;20120;-68
2021/12/29 07:52:15;;;;;;;107.80;21.05;;;;;;;;;;5054524;28;20049;-68
2021/12/29 07:54:41;;;;;;;81.45;16.95;;;;;;;;;;5054125;28;20095;-68
2021/12/29 07:57:07;;;;;;;97.28;19.50;;;;;;;;;;5054019;28;20040;-68
2021/12/29 07:59:34;;;;;;;87.30;18.15;;;;;;;;;;5053263;28;20484;-69
2021/12/29 08:02:01;;;;;;;108.75;20.52;;;;;;;;;;5054550;28;20057;-68
2021/12/29 08:04:27;;;;;;;106.72;21.23;;;;;;;;;;5057239;28;20053;-68
2021/12/29 08:06:53;;;;;;;110.85;20.95;;;;;;;;;;5055543;28;20442;-68
2021/12/29 08:09:19;;;;;;;117.05;20.55;;;;;;;;;;5039266;28;20053;-68
2021/12/29 08:11:46;;;;;;;114.75;21.88;;;;;;;;;;5056152;28;20052;-68
2021/12/29 08:14:12;;;;;;;115.60;19.42;;;;;;;;;;5055570;28;20123;-68
2021/12/29 08:16:38;;;;;;;116.88;19.63;;;;;;;;;;5037754;28;20049;-67
2021/12/29 08:19:05;;;;;;;120.97;19.98;;;;;;;;;;5053723;28;20044;-67
2021/12/29 08:21:31;;;;;;;129.18;21.67;;;;;;;;;;5053260;28;20103;-67
2021/12/29 08:24:00;;;;;;;125.47;20.00;;;;;;;;;;5055328;28;20467;-67
2021/12/29 08:26:26;;;;;;;106.25;18.70;;;;;;;;;;5055155;28;20128;-67
2021/12/29 08:28:57;;;;;;;114.40;18.90;;;;;;;;;;5037339;28;20048;-67
2021/12/29 08:31:23;;;;;;;124.78;19.88;;;;;;;;;;5056377;28;20056;-68
2021/12/29 08:33:49;;;;;;;111.22;19.58;;;;;;;;;;5056090;28;20061;-67
2021/12/29 08:36:15;;;;;;;112.78;19.70;;;;;;;;;;5037003;28;20052;-68
2021/12/29 08:38:41;;;;;;;112.22;19.55;;;;;;;;;;5054897;28;20438;-68
2021/12/29 08:41:07;;;;;;;113.78;20.73;;;;;;;;;;5055240;28;20052;-68
2021/12/29 08:43:33;;;;;;;107.55;19.73;;;;;;;;;;5054112;28;20491;-68
2021/12/29 08:45:59;;;;;;;99.55;18.60;;;;;;;;;;5054054;28;20398;-68
2021/12/29 08:48:25;;;;;;;104.05;19.73;;;;;;;;;;5056070;28;20053;-68
2021/12/29 08:50:51;;;;;;;101.07;18.40;;;;;;;;;;5037172;28;20392;-67
2021/12/29 08:53:17;;;;;;;97.18;18.55;;;;;;;;;;5037221;28;20178;-67
2021/12/29 08:55:47;;;;;;;88.63;17.52;;;;;;;;;;5055132;28;20174;-67
2021/12/29 08:58:12;;;;;;;;;;;;;;;;;;5057292;28;20049;-67
2021/12/29 09:00:38;;;;;;;80.25;16.48;;;;;;;;;;5038553;28;19921;-67
2021/12/29 09:03:06;;;;;;;82.82;16.30;;;;;;;;;;5054575;28;20044;-67
2021/12/29 09:05:32;;;;;;;80.63;16.48;;;;;;;;;;5039952;28;20053;-67
2021/12/29 09:07:58;;;;;;;74.03;15.45;;;;;;;;;;5055189;28;20453;-68
2021/12/29 09:10:24;;;;;;;78.97;15.68;;;;;;;;;;5037891;28;20099;-68
2021/12/29 09:12:51;;;;;;;69.13;14.38;;;;;;;;;;5055198;28;20041;-68
2021/12/29 09:15:18;;;;;;;75.05;14.60;;;;;;;;;;5020706;28;20072;-68
2021/12/29 09:17:44;;;;;;;68.13;13.63;;;;;;;;;;5055720;28;20051;-68
2021/12/29 09:20:15;;;;;;;76.75;16.27;;;;;;;;;;5054889;28;20084;-68
2021/12/29 09:22:41;;;;;;;58.25;14.65;;;;;;;;;;5038286;28;20071;-67
2021/12/29 09:25:08;;;;;;;66.65;14.32;;;;;;;;;;5054780;28;20045;-67
2021/12/29 09:27:34;;;;;;;71.18;15.50;;;;;;;;;;5052919;28;20048;-68
2021/12/29 09:30:00;;;;;;;76.28;15.95;;;;;;;;;;5055582;28;20057;-68
2021/12/29 09:32:31;;;;;;;;;;;;;;;;;;5053056;28;20076;-68
2021/12/29 09:34:59;;;;;;;62.45;13.82;;;;;;;;;;5054225;28;19920;-68
2021/12/29 09:37:26;;;;;;;99.10;19.00;;;;;;;;;;5055032;28;20057;-68
2021/12/29 09:39:52;;;;;;;67.93;13.48;;;;;;;;;;5054124;28;20092;-67
2021/12/29 09:42:18;;;;;;;83.05;14.77;;;;;;;;;;5053779;28;20045;-68
2021/12/29 09:44:44;;;;;;;59.08;14.20;;;;;;;;;;5053192;28;20051;-67
2021/12/29 09:47:10;;;;;;;66.10;14.15;;;;;;;;;;5052276;28;20045;-68
2021/12/29 09:49:37;;;;;;;84.53;15.30;;;;;;;;;;5052113;28;20055;-68
2021/12/29 09:52:04;;;;;;;93.97;15.65;;;;;;;;;;5055315;28;20056;-68
2021/12/29 09:54:30;;;;;;;70.43;13.60;;;;;;;;;;5053889;28;20399;-67
2021/12/29 09:56:56;;;;;;;70.45;14.30;;;;;;;;;;5036325;28;20406;-68
2021/12/29 09:59:23;;;;;;;65.45;13.88;;;;;;;;;;5054434;28;20137;-67
2021/12/29 10:01:49;;;;;;;60.03;13.13;;;;;;;;;;5035700;28;20411;-68
2021/12/29 10:04:15;;;;;;;50.63;12.63;;;;;;;;;;5052840;28;20041;-67
2021/12/29 10:06:41;;;;;;;45.13;11.57;;;;;;;;;;5051997;28;20102;-68
2021/12/29 10:09:14;;;;;;;41.70;11.13;;;;;;;;;;5052125;28;20049;-67
2021/12/29 10:11:40;;;;;;;41.45;11.20;;;;;;;;;;5051917;28;20041;-67
2021/12/29 10:14:08;;;;;;;43.38;10.18;;;;;;;;;;5050939;28;20499;-67
2021/12/29 10:16:34;;;;;;;38.35;10.75;;;;;;;;;;5051846;28;20040;-68
2021/12/29 10:19:02;;;;;;;32.40;9.98;;;;;;;;;;5035639;28;20091;-68
2021/12/29 10:21:28;;;;;;;64.40;14.40;;;;;;;;;;5034897;28;20071;-68
2021/12/29 10:23:55;;;;;;;42.50;11.43;;;;;;;;;;5050877;28;20521;-68
2021/12/29 10:26:23;;;;;;;31.10;10.00;;;;;;;;;;5053099;28;20049;-68
2021/12/29 10:28:50;;;;;;;30.45;9.65;;;;;;;;;;5052139;28;20041;-68
2021/12/29 10:31:18;;;;;;;32.63;9.52;;;;;;;;;;5050610;28;20103;-68
2021/12/29 10:33:47;;;;;;;26.10;8.97;;;;;;;;;;5034815;28;20059;-68
2021/12/29 10:36:23;;;;;;;31.73;8.82;;;;;;;;;;5033996;28;20056;-67
2021/12/29 10:39:05;;;;;;;31.13;10.10;;;;;;;;;;5050514;28;20045;-67
2021/12/29 10:41:32;;;;;;;32.92;9.60;;;;;;;;;;5051982;28;20041;-67
2021/12/29 10:44:00;;;;;;;39.70;10.75;;;;;;;;;;5050529;28;20049;-67
2021/12/29 10:46:31;;;;;;;33.42;10.35;;;;;;;;;;5050565;28;20491;-68
2021/12/29 10:48:57;;;;;;;40.53;9.63;;;;;;;;;;5034298;28;20044;-68
2021/12/29 10:51:33;;;;;;;33.63;10.88;;;;;;;;;;5051165;28;20052;-68
2021/12/29 10:54:04;;;;;;;38.75;10.07;;;;;;;;;;5052477;28;20045;-67
2021/12/29 10:56:30;;;;;;;39.55;11.68;;;;;;;;;;5050213;28;20037;-67
2021/12/29 10:58:56;;;;;;;42.03;11.45;;;;;;;;;;5050477;28;20049;-67
2021/12/29 11:01:22;;;;;;;41.03;10.88;;;;;;;;;;5050316;28;20041;-67
2021/12/29 11:03:50;;;;;;;32.95;10.80;;;;;;;;;;5051012;28;20036;-68
2021/12/29 11:06:18;;;;;;;30.17;10.95;;;;;;;;;;5052091;28;20136;-67
2021/12/29 11:08:48;;;;;;;30.33;10.70;;;;;;;;;;5051324;28;20052;-68
2021/12/29 11:11:14;;;;;;;30.70;10.82;;;;;;;;;;5033826;28;20092;-68
2021/12/29 11:13:41;;;;;;;138.35;27.67;;;;;;;;;;5034961;28;20041;-67
2021/12/29 11:16:09;;;;;;;64.80;16.90;;;;;;;;;;5050443;28;20053;-67
2021/12/29 11:18:44;;;;;;;74.10;18.33;;;;;;;;;;5050452;28;20095;-68
2021/12/29 11:21:10;;;;;;;31.02;10.25;;;;;;;;;;5048840;28;20042;-68
2021/12/29 11:23:41;;;;;;;124.88;23.30;;;;;;;;;;5051391;28;20090;-67
2021/12/29 11:26:11;;;;;;;75.43;17.80;;;;;;;;;;5050994;28;20088;-67
2021/12/29 11:28:37;;;;;;;35.97;10.85;;;;;;;;;;5055076;28;20157;-68
2021/12/29 11:31:04;;;;;;;36.08;11.75;;;;;;;;;;5055520;28;20103;-68
2021/12/29 11:33:31;;;;;;;33.15;12.40;;;;;;;;;;5055199;28;20045;-68
2021/12/29 11:35:57;;;;;;;32.28;10.48;;;;;;;;;;5036912;28;20552;-68
2021/12/29 11:38:24;;;;;;;37.47;11.00;;;;;;;;;;5053789;28;20126;-68
2021/12/29 11:40:51;;;;;;;32.08;10.48;;;;;;;;;;5054916;28;20064;-68
2021/12/29 11:43:18;;;;;;;31.95;11.75;;;;;;;;;;5033813;28;20093;-68
2021/12/29 11:45:45;;;;;;;31.58;10.77;;;;;;;;;;5053622;28;20562;-68
2021/12/29 11:48:12;;;;;;;36.38;11.07;;;;;;;;;;5037799;28;20044;-68
2021/12/29 11:50:46;;;;;;;37.97;10.88;;;;;;;;;;5053591;28;20478;-68
2021/12/29 11:53:38;;;;;;;34.88;11.48;;;;;;;;;;5053631;28;20068;-67
2021/12/29 11:56:08;;;;;;;27.98;10.48;;;;;;;;;;5036909;28;20052;-67
2021/12/29 11:58:37;;;;;;;33.60;10.93;;;;;;;;;;5037142;28;20037;-68
2021/12/29 12:01:06;;;;;;;33.47;10.95;;;;;;;;;;5053253;28;20049;-68
2021/12/29 12:03:39;;;;;;;35.55;12.10;;;;;;;;;;5053198;28;20045;-68
2021/12/29 12:06:06;;;;;;;42.17;12.98;;;;;;;;;;5055520;28;20072;-67
2021/12/29 12:08:32;;;;;;;33.05;10.43;;;;;;;;;;5052668;28;20053;-68
2021/12/29 12:11:00;;;;;;;44.25;11.32;;;;;;;;;;5054632;28;20501;-67
2021/12/29 12:13:31;;;;;;;37.45;10.88;;;;;;;;;;5036456;28;20123;-67
2021/12/29 12:16:07;;;;;;;35.42;10.48;;;;;;;;;;5054358;28;20463;-67
2021/12/29 12:18:43;;;;;;;66.75;14.77;;;;;;;;;;5055341;28;20087;-68
2021/12/29 12:21:19;;;;;;;72.00;16.80;;;;;;;;;;5052955;28;20041;-68
2021/12/29 12:23:45;;;;;;;37.15;10.35;;;;;;;;;;5054215;28;20052;-68
2021/12/29 12:26:11;;;;;;;32.00;10.77;;;;;;;;;;5053271;28;20045;-68
2021/12/29 12:28:48;;;;;;;36.13;11.02;;;;;;;;;;5054855;28;20072;-68
2021/12/29 12:31:28;;;;;;;32.35;11.00;;;;;;;;;;5053326;28;20128;-67
2021/12/29 12:34:06;;;;;;;51.85;14.65;;;;;;;;;;5053850;28;20480;-68
2021/12/29 12:36:33;;;;;;;43.97;13.30;;;;;;;;;;5054981;28;20045;-68
2021/12/29 12:39:09;;;;;;;39.22;12.45;;;;;;;;;;5054508;28;20041;-68
2021/12/29 12:41:40;;;;;;;37.88;11.35;;;;;;;;;;5054073;28;20548;-68
2021/12/29 12:44:06;;;;;;;60.75;15.20;;;;;;;;;;5017363;28;20132;-68
2021/12/29 12:46:33;;;;;;;36.42;11.38;;;;;;;;;;5028297;28;20048;-68
2021/12/29 12:49:00;;;;;;;53.75;14.40;;;;;;;;;;5032983;28;20403;-68
2021/12/29 12:51:29;;;;;;;45.35;12.65;;;;;;;;;;5051386;28;20044;-68
2021/12/29 12:53:55;;;;;;;34.90;11.35;;;;;;;;;;5052104;28;20494;-68
2021/12/29 12:56:22;;;;;;;41.97;13.32;;;;;;;;;;5053250;28;20041;-68
2021/12/29 12:58:50;;;;;;;27.73;11.23;;;;;;;;;;5052049;28;20052;-67
2021/12/29 13:01:23;;;;;;;29.10;12.13;;;;;;;;;;5035601;28;20041;-68
2021/12/29 13:03:49;;;;;;;32.03;11.30;;;;;;;;;;5052822;28;20053;-68
2021/12/29 13:06:17;;;;;;;47.33;13.18;;;;;;;;;;5052633;28;20045;-68
2021/12/29 13:08:45;;;;;;;42.50;12.77;;;;;;;;;;5052530;28;20075;-68
2021/12/29 13:11:24;;;;;;;35.85;13.32;;;;;;;;;;5052244;28;20045;-68
2021/12/29 13:13:50;;;;;;;;;;;;;;;;;;5053569;28;20082;-68
2021/12/29 13:16:18;;;;;;;59.25;15.50;;;;;;;;;;5051854;28;19971;-68
2021/12/29 13:18:47;;;;;;;31.63;12.65;;;;;;;;;;5054079;28;20044;-68
2021/12/29 13:21:15;;;;;;;43.63;13.88;;;;;;;;;;5051729;28;20044;-68
2021/12/29 13:23:41;;;;;;;40.35;14.18;;;;;;;;;;5053355;28;20048;-68
2021/12/29 13:26:07;;;;;;;38.83;14.85;;;;;;;;;;5035337;28;20182;-67
2021/12/29 13:28:33;;;;;;;65.90;18.23;;;;;;;;;;5051866;28;20052;-68
2021/12/29 13:31:01;;;;;;;53.95;17.98;;;;;;;;;;5052636;28;20045;-68
2021/12/29 13:33:28;;;;;;;88.38;22.98;;;;;;;;;;5051538;28;20080;-68
2021/12/29 13:35:56;;;;;;;58.40;19.87;;;;;;;;;;5051655;28;20055;-67
2021/12/29 13:38:23;;;;;;;47.90;17.88;;;;;;;;;;5051461;28;20562;-68
2021/12/29 13:40:51;;;;;;;35.13;15.80;;;;;;;;;;5052233;28;20056;-69
2021/12/29 13:43:25;;;;;;;46.97;16.30;;;;;;;;;;5051311;28;20049;-68
2021/12/29 13:45:55;;;;;;;57.00;18.13;;;;;;;;;;5052577;28;20568;-68
2021/12/29 13:48:24;;;;;;;43.47;16.65;;;;;;;;;;5052025;28;20056;-67
2021/12/29 13:51:02;;;;;;;40.72;16.25;;;;;;;;;;5051545;28;20053;-68
2021/12/29 13:53:28;;;;;;;247.68;42.72;;;;;;;;;;5050999;28;20087;-67
2021/12/29 13:55:56;;;;;;;56.08;18.20;;;;;;;;;;5051480;28;20037;-68
2021/12/29 13:58:23;;;;;;;62.63;18.20;;;;;;;;;;5052438;28;20372;-68
2021/12/29 14:00:49;;;;;;;41.90;15.93;;;;;;;;;;5051352;28;20063;-68
2021/12/29 14:03:15;;;;;;;59.25;17.55;;;;;;;;;;5051226;28;20170;-68
2021/12/29 14:05:46;;;;;;;81.18;25.02;;;;;;;;;;5035379;28;20048;-68
2021/12/29 14:08:13;;;;;;;49.30;22.98;;;;;;;;;;5052402;28;20045;-67
2021/12/29 14:10:40;;;;;;;56.60;21.60;;;;;;;;;;5052487;28;20076;-68
2021/12/29 14:13:07;;;;;;;48.13;21.75;;;;;;;;;;5051036;28;20052;-68
2021/12/29 14:15:33;;;;;;;79.82;24.35;;;;;;;;;;5052069;28;20079;-68
2021/12/29 14:17:59;;;;;;;57.70;20.33;;;;;;;;;;5053113;28;20045;-68
2021/12/29 14:20:26;;;;;;;45.55;17.15;;;;;;;;;;5050878;28;20044;-67
2021/12/29 14:23:02;;;;;;;35.72;16.80;;;;;;;;;;5052138;28;20041;-67
2021/12/29 14:25:34;;;;;;;48.60;19.20;;;;;;;;;;5050853;28;20049;-67